Terminal Aerodrome Forecast
Issued by NWS

Home | Current Version | Previous Version | Text Only | Print | Product List | Glossary On
Versions: 1 2 3 4 5 6 7 8 9 10 11 12 13 14 15 16 17 18 19
000
FTUS41 KCAR 260548
TAFBHB
TAF
KBHB 260548Z 2606/2706 VRB03KT P6SM BKN200
     FM261500 35005KT P6SM -RA BKN070
     FM261800 36006KT 3SM -RASN SCT015 OVC025
     FM261930 03008KT 1SM -SN VV008
     FM262200 03009KT 1/2SM SN VV005
     FM270300 04020G38KT 2SM -SNPL OVC008
      AMD LTD TO CLD VIS AND WIND=

USA.gov is the U.S. government's official web portal to all federal, state and local government web resources and services.